createdAt,value
2018-09-13T00:01:46.057Z,96.20
2018-09-13T00:04:14.220Z,96.10
2018-09-13T00:06:42.446Z,96.00
2018-09-13T00:09:10.558Z,96.00
2018-09-13T00:11:39.196Z,95.90
2018-09-13T00:14:07.332Z,95.90
2018-09-13T00:16:35.704Z,95.90
2018-09-13T00:19:03.972Z,95.90
2018-09-13T00:21:32.388Z,95.80
2018-09-13T00:24:00.569Z,95.60
2018-09-13T00:26:28.926Z,95.60
2018-09-13T00:28:57.108Z,95.60
2018-09-13T00:31:25.648Z,95.50
2018-09-13T00:33:53.858Z,95.50
2018-09-13T00:36:22.140Z,95.50
2018-09-13T00:38:50.956Z,95.50
2018-09-13T00:41:19.252Z,95.60
2018-09-13T00:43:48.760Z,95.50
2018-09-13T00:46:17.031Z,95.50
2018-09-13T00:48:45.970Z,95.50
2018-09-13T00:51:14.157Z,95.50
2018-09-13T00:53:42.372Z,95.50
2018-09-13T00:56:10.617Z,95.30
2018-09-13T00:58:38.909Z,95.50
2018-09-13T01:01:07.160Z,95.60
2018-09-13T01:03:35.357Z,95.60
2018-09-13T01:06:03.667Z,95.80
2018-09-13T01:08:32.420Z,95.90
2018-09-13T01:11:00.523Z,95.90
2018-09-13T01:13:28.766Z,96.00
2018-09-13T01:15:56.969Z,96.00
2018-09-13T01:18:25.159Z,96.00
2018-09-13T01:20:53.541Z,96.00
2018-09-13T01:23:21.700Z,96.00
2018-09-13T01:25:49.929Z,96.00
2018-09-13T01:28:18.164Z,96.00
2018-09-13T01:30:46.493Z,96.10
2018-09-13T01:33:14.821Z,96.20
2018-09-13T01:35:42.931Z,96.40
2018-09-13T01:38:11.253Z,96.30
2018-09-13T01:40:39.490Z,96.30
2018-09-13T01:43:08.290Z,96.50
2018-09-13T01:45:36.535Z,96.50
2018-09-13T01:48:04.835Z,96.80
2018-09-13T01:50:33.020Z,96.60
2018-09-13T01:53:01.243Z,96.50
2018-09-13T01:55:29.437Z,96.70
2018-09-13T01:57:58.078Z,96.70
2018-09-13T02:00:26.280Z,96.80
2018-09-13T02:02:54.396Z,96.70
2018-09-13T02:05:22.936Z,96.70
2018-09-13T02:07:51.177Z,96.60
2018-09-13T02:10:19.398Z,96.50
2018-09-13T02:12:47.610Z,96.50
2018-09-13T02:15:15.950Z,96.50
2018-09-13T02:17:44.290Z,96.50
2018-09-13T02:20:12.932Z,96.50
2018-09-13T02:22:41.274Z,96.60
2018-09-13T02:25:09.544Z,96.70
2018-09-13T02:27:37.728Z,96.70
2018-09-13T02:30:06.217Z,96.70
2018-09-13T02:32:34.505Z,96.70
2018-09-13T02:35:03.082Z,96.70
2018-09-13T02:37:31.289Z,96.70
2018-09-13T02:39:59.612Z,96.70
2018-09-13T02:42:28.126Z,96.80
2018-09-13T02:44:56.546Z,96.80
2018-09-13T02:47:24.718Z,96.80
2018-09-13T02:49:53.449Z,96.80
2018-09-13T02:52:21.686Z,96.80
2018-09-13T02:54:49.989Z,96.60
2018-09-13T02:57:18.200Z,96.60
2018-09-13T02:59:46.475Z,96.50
2018-09-13T03:02:14.645Z,96.40
2018-09-13T03:04:42.852Z,96.20
2018-09-13T03:07:11.207Z,96.10
2018-09-13T03:09:39.470Z,96.20
2018-09-13T03:12:07.717Z,96.30
2018-09-13T03:14:36.009Z,96.40
2018-09-13T03:17:04.172Z,96.30
2018-09-13T03:19:33.903Z,96.30
2018-09-13T03:22:05.505Z,96.30
2018-09-13T03:24:33.611Z,96.30
2018-09-13T03:27:01.717Z,96.30
2018-09-13T03:29:30.041Z,96.20
2018-09-13T03:31:58.191Z,96.20
2018-09-13T03:34:26.512Z,96.10
2018-09-13T03:36:54.659Z,96.00
2018-09-13T03:39:22.749Z,95.90
2018-09-13T03:41:51.018Z,96.10
2018-09-13T03:44:19.301Z,96.00
2018-09-13T03:46:47.452Z,96.00
2018-09-13T03:49:15.685Z,96.00
2018-09-13T03:51:44.482Z,96.00
2018-09-13T03:54:12.796Z,95.80
2018-09-13T03:56:41.027Z,95.70
2018-09-13T03:59:09.363Z,95.70
2018-09-13T04:01:37.699Z,95.70
2018-09-13T04:04:05.982Z,95.70
2018-09-13T04:06:34.289Z,95.70
2018-09-13T04:09:02.798Z,95.70
2018-09-13T04:11:31.228Z,95.70
2018-09-13T04:13:59.554Z,95.70
2018-09-13T04:16:27.629Z,95.70
2018-09-13T04:18:56.004Z,95.70
2018-09-13T04:21:24.401Z,95.50
2018-09-13T04:23:52.644Z,95.50
2018-09-13T04:26:20.961Z,95.60
2018-09-13T04:28:49.684Z,95.60
2018-09-13T04:31:18.213Z,95.60
2018-09-13T04:33:46.445Z,95.70
2018-09-13T04:36:14.745Z,95.50
2018-09-13T04:38:42.906Z,95.60
2018-09-13T04:41:11.210Z,95.80
2018-09-13T04:43:39.700Z,95.80
2018-09-13T04:46:08.099Z,95.80
2018-09-13T04:48:36.471Z,95.70
2018-09-13T04:51:04.718Z,95.70
2018-09-13T04:53:33.161Z,95.70
2018-09-13T04:56:01.319Z,96.00
2018-09-13T04:58:29.619Z,95.60
2018-09-13T05:00:57.776Z,95.60
2018-09-13T05:03:26.007Z,95.50
2018-09-13T05:05:54.162Z,95.50
2018-09-13T05:08:22.399Z,95.60
2018-09-13T05:10:50.587Z,95.50
2018-09-13T05:13:19.085Z,95.50
2018-09-13T05:15:47.720Z,95.30
2018-09-13T05:18:15.853Z,95.20
2018-09-13T05:20:44.147Z,95.10
2018-09-13T05:23:12.297Z,95.00
2018-09-13T05:25:40.623Z,95.20
2018-09-13T05:28:08.895Z,94.90
2018-09-13T05:30:37.031Z,94.70
2018-09-13T05:33:05.473Z,94.70
2018-09-13T05:35:34.357Z,94.70
2018-09-13T05:38:02.751Z,94.60
2018-09-13T05:40:31.058Z,94.50
2018-09-13T05:42:59.195Z,94.50
2018-09-13T05:45:28.529Z,94.40
2018-09-13T05:47:59.659Z,94.30
2018-09-13T05:50:28.072Z,94.40
2018-09-13T05:52:56.175Z,94.30
2018-09-13T05:55:25.283Z,94.70
2018-09-13T05:57:54.237Z,94.80
2018-09-13T06:00:22.433Z,94.70
2018-09-13T06:02:50.937Z,94.60
2018-09-13T06:05:19.481Z,94.40
2018-09-13T06:07:48.461Z,94.30
2018-09-13T06:10:16.703Z,94.50
2018-09-13T06:12:44.869Z,94.10
2018-09-13T06:15:13.674Z,93.90
2018-09-13T06:17:42.199Z,94.10
2018-09-13T06:20:10.375Z,94.10
2018-09-13T06:22:38.715Z,94.10
2018-09-13T06:25:07.280Z,94.00
2018-09-13T06:27:35.350Z,93.60
2018-09-13T06:30:03.791Z,93.10
2018-09-13T06:32:32.004Z,93.10
2018-09-13T06:35:00.103Z,93.30
2018-09-13T06:37:28.276Z,93.10
2018-09-13T06:39:56.396Z,93.00
2018-09-13T06:42:24.617Z,93.00
2018-09-13T06:44:52.666Z,92.80
2018-09-13T06:47:21.108Z,92.80
2018-09-13T06:49:49.245Z,92.90
2018-09-13T06:52:17.774Z,93.20
2018-09-13T06:54:45.882Z,92.70
2018-09-13T06:57:14.097Z,92.60
2018-09-13T06:59:42.315Z,92.80
2018-09-13T07:02:10.689Z,92.60
2018-09-13T07:04:38.795Z,92.60
2018-09-13T07:07:07.075Z,92.60
2018-09-13T07:09:35.314Z,92.50
2018-09-13T07:12:03.561Z,92.70
2018-09-13T07:14:31.798Z,92.60
2018-09-13T07:17:00.075Z,93.00
2018-09-13T07:19:28.307Z,92.40
2018-09-13T07:21:56.601Z,91.70
2018-09-13T07:24:24.769Z,91.30
2018-09-13T07:26:53.167Z,91.10
2018-09-13T07:29:21.650Z,90.80
2018-09-13T07:31:49.840Z,90.70
2018-09-13T07:34:18.187Z,90.50
2018-09-13T07:36:47.117Z,90.50
2018-09-13T07:39:15.419Z,90.60
2018-09-13T07:41:43.565Z,90.70
2018-09-13T07:44:11.736Z,90.40
2018-09-13T07:46:46.643Z,90.50
2018-09-13T07:49:14.934Z,90.30
2018-09-13T07:51:42.995Z,90.30
2018-09-13T07:54:11.118Z,89.80
2018-09-13T07:56:39.359Z,89.60
2018-09-13T07:59:07.633Z,89.50
2018-09-13T08:01:35.795Z,90.00
2018-09-13T08:04:04.121Z,89.60
2018-09-13T08:06:32.287Z,89.80
2018-09-13T08:09:00.401Z,89.70
2018-09-13T08:11:29.355Z,89.50
2018-09-13T08:13:57.810Z,89.30
2018-09-13T08:16:25.929Z,88.70
2018-09-13T08:18:54.057Z,87.90
2018-09-13T08:21:22.253Z,88.40
2018-09-13T08:23:50.573Z,87.90
2018-09-13T08:26:18.721Z,87.50
2018-09-13T08:28:46.896Z,87.10
2018-09-13T08:31:15.068Z,86.60
2018-09-13T08:33:43.310Z,87.50
2018-09-13T08:36:11.741Z,87.50
2018-09-13T08:38:40.032Z,87.30
2018-09-13T08:41:08.299Z,87.90
2018-09-13T08:43:36.500Z,86.10
2018-09-13T08:46:04.730Z,85.90
2018-09-13T08:48:32.896Z,84.60
2018-09-13T08:51:01.174Z,84.20
2018-09-13T08:53:29.574Z,84.00
2018-09-13T08:55:57.735Z,84.10
2018-09-13T08:58:25.846Z,84.80
2018-09-13T09:00:54.798Z,84.90
2018-09-13T09:03:22.932Z,84.30
2018-09-13T09:05:51.104Z,84.90
2018-09-13T09:08:19.430Z,84.70
2018-09-13T09:10:47.632Z,84.50
2018-09-13T09:13:15.820Z,84.70
2018-09-13T09:15:43.986Z,84.70
2018-09-13T09:18:12.202Z,85.50
2018-09-13T09:20:40.480Z,85.40
2018-09-13T09:23:08.584Z,85.10
2018-09-13T09:25:36.803Z,85.80
2018-09-13T09:28:05.074Z,85.50
2018-09-13T09:30:34.498Z,85.50
2018-09-13T09:33:02.684Z,85.20
2018-09-13T09:35:30.865Z,85.30
2018-09-13T09:37:59.004Z,86.30
2018-09-13T09:40:27.178Z,87.60
2018-09-13T09:42:55.388Z,87.30
2018-09-13T09:45:23.506Z,87.80
2018-09-13T09:47:51.675Z,87.50
2018-09-13T09:50:20.698Z,87.60
2018-09-13T09:52:48.771Z,88.60
2018-09-13T09:55:22.283Z,89.50
2018-09-13T09:57:50.843Z,89.30
2018-09-13T10:00:27.428Z,89.40
2018-09-13T10:02:55.722Z,89.30
2018-09-13T10:05:24.070Z,89.40
2018-09-13T10:07:52.311Z,88.70
2018-09-13T10:10:20.420Z,88.50
2018-09-13T10:12:48.517Z,88.40
2018-09-13T10:15:22.469Z,88.10
2018-09-13T10:17:56.197Z,87.80
2018-09-13T10:20:30.007Z,87.60
2018-09-13T10:23:03.845Z,87.00
2018-09-13T10:25:38.015Z,86.60
2018-09-13T10:28:11.991Z,85.50
2018-09-13T10:31:45.869Z,84.20
2018-09-13T10:34:19.671Z,83.10
2018-09-13T10:36:54.269Z,82.40
2018-09-13T10:39:28.124Z,82.70
2018-09-13T10:42:02.175Z,82.70
2018-09-13T10:44:36.181Z,82.30
2018-09-13T10:47:10.830Z,81.00
2018-09-13T10:49:44.687Z,79.70
2018-09-13T10:52:17.311Z,77.50
2018-09-13T10:54:45.432Z,75.20
2018-09-13T10:57:19.371Z,73.30
2018-09-13T10:59:48.045Z,73.30
2018-09-13T11:02:16.274Z,73.50
2018-09-13T11:04:44.856Z,74.20
2018-09-13T11:07:13.126Z,74.50
2018-09-13T11:09:41.412Z,74.00
2018-09-13T11:12:09.699Z,74.00
2018-09-13T11:14:56.442Z,73.60
2018-09-13T11:17:25.340Z,74.70
2018-09-13T11:19:53.780Z,75.60
2018-09-13T11:22:21.979Z,77.60
2018-09-13T11:24:50.163Z,79.00
2018-09-13T11:27:18.452Z,80.40
2018-09-13T11:29:46.659Z,81.00
2018-09-13T11:32:15.419Z,81.70
2018-09-13T11:34:44.328Z,82.00
2018-09-13T11:37:12.799Z,82.30
2018-09-13T11:39:42.026Z,82.10
2018-09-13T11:42:10.185Z,81.80
2018-09-13T11:44:38.424Z,82.60
2018-09-13T11:47:06.948Z,82.50
2018-09-13T11:49:35.153Z,82.00
2018-09-13T11:52:04.126Z,82.70
2018-09-13T11:54:32.235Z,83.30
2018-09-13T11:57:00.413Z,83.10
2018-09-13T11:59:28.604Z,83.20
2018-09-13T12:01:56.777Z,83.60
2018-09-13T12:04:25.037Z,83.50
2018-09-13T12:06:53.297Z,84.10
2018-09-13T12:09:21.641Z,84.40
2018-09-13T12:11:49.780Z,85.50
2018-09-13T12:14:18.040Z,85.30
2018-09-13T12:16:46.328Z,85.30
2018-09-13T12:19:14.531Z,86.00
2018-09-13T12:21:43.089Z,86.00
2018-09-13T12:24:11.404Z,86.20
2018-09-13T12:26:39.659Z,85.60
2018-09-13T12:29:07.869Z,85.50
2018-09-13T12:31:36.159Z,85.50
2018-09-13T12:34:04.362Z,85.30
2018-09-13T12:36:32.617Z,85.90
2018-09-13T12:39:00.899Z,86.90
2018-09-13T12:41:29.075Z,86.90
2018-09-13T12:43:57.302Z,87.00
2018-09-13T12:46:25.554Z,86.60
2018-09-13T12:48:53.815Z,86.40
2018-09-13T12:51:23.092Z,86.20
2018-09-13T12:53:51.320Z,85.80
2018-09-13T12:56:20.008Z,86.40
2018-09-13T12:58:48.219Z,86.80
2018-09-13T13:01:16.438Z,88.10
2018-09-13T13:03:45.494Z,89.30
2018-09-13T13:06:13.743Z,90.20
2018-09-13T13:08:42.244Z,91.20
2018-09-13T13:11:10.470Z,91.40
2018-09-13T13:13:38.662Z,91.60
2018-09-13T13:16:06.976Z,91.40
2018-09-13T13:18:35.161Z,91.10
2018-09-13T13:21:04.191Z,90.90
2018-09-13T13:23:32.380Z,91.00
2018-09-13T13:26:01.170Z,91.20
2018-09-13T13:28:29.322Z,91.30
2018-09-13T13:30:57.504Z,91.70
2018-09-13T13:33:25.791Z,91.80
2018-09-13T13:35:54.073Z,92.10
2018-09-13T13:38:22.479Z,92.30
2018-09-13T13:40:50.642Z,92.80
2018-09-13T13:43:18.853Z,93.10
2018-09-13T13:45:47.003Z,93.30
2018-09-13T13:48:15.292Z,93.40
2018-09-13T13:50:43.498Z,93.50
2018-09-13T13:53:11.644Z,93.70
2018-09-13T13:55:40.085Z,93.90
2018-09-13T13:58:08.344Z,94.00
2018-09-13T14:00:36.683Z,94.20
2018-09-13T14:03:05.096Z,94.20
2018-09-13T14:05:33.342Z,94.20
2018-09-13T14:08:01.641Z,94.50
2018-09-13T14:10:29.814Z,94.60
2018-09-13T14:12:58.086Z,94.40
2018-09-13T14:15:26.408Z,94.30
2018-09-13T14:17:54.546Z,94.20
2018-09-13T14:20:22.849Z,94.20
2018-09-13T14:22:51.042Z,94.00
2018-09-13T14:25:19.315Z,93.90
2018-09-13T14:27:47.642Z,93.80
2018-09-13T14:30:15.849Z,94.10
2018-09-13T14:32:44.041Z,94.20
2018-09-13T14:35:12.648Z,94.30
2018-09-13T14:37:40.793Z,94.20
2018-09-13T14:40:08.926Z,94.10
2018-09-13T14:42:37.177Z,93.90
2018-09-13T14:45:06.417Z,93.90
2018-09-13T14:47:34.641Z,93.90
2018-09-13T14:50:02.891Z,94.10
2018-09-13T14:52:31.062Z,94.20
2018-09-13T14:54:59.852Z,94.20
2018-09-13T14:57:28.113Z,94.30
2018-09-13T14:59:56.295Z,94.20
2018-09-13T15:02:24.507Z,94.20
2018-09-13T15:04:52.978Z,94.00
2018-09-13T15:07:21.232Z,93.80
2018-09-13T15:09:49.332Z,93.70
2018-09-13T15:12:17.587Z,93.60
2018-09-13T15:14:45.884Z,93.80
2018-09-13T15:17:14.101Z,93.80
2018-09-13T15:19:42.354Z,94.00
2018-09-13T15:22:10.492Z,94.30
2018-09-13T15:24:39.691Z,94.40
2018-09-13T15:27:09.056Z,94.40
2018-09-13T15:29:39.580Z,94.40
2018-09-13T15:32:07.838Z,94.50
2018-09-13T15:34:36.101Z,94.30
2018-09-13T15:37:04.537Z,94.00
2018-09-13T15:39:32.675Z,93.90
2018-09-13T15:42:00.861Z,93.90
2018-09-13T15:44:29.085Z,94.00
2018-09-13T15:46:57.369Z,94.20
2018-09-13T15:49:25.554Z,94.50
2018-09-13T15:51:53.809Z,94.60
2018-09-13T15:54:22.013Z,94.90
2018-09-13T15:56:50.247Z,94.90
2018-09-13T15:59:18.436Z,95.00
2018-09-13T16:01:46.807Z,95.30
2018-09-13T16:04:15.052Z,94.90
2018-09-13T16:06:43.268Z,94.90
2018-09-13T16:09:11.537Z,95.20
2018-09-13T16:11:39.700Z,95.20
2018-09-13T16:14:07.921Z,95.20
2018-09-13T16:16:36.073Z,95.10
2018-09-13T16:19:04.394Z,95.00
2018-09-13T16:21:32.517Z,95.10
2018-09-13T16:24:00.667Z,95.40
2018-09-13T16:26:28.988Z,95.00
2018-09-13T16:28:57.254Z,95.10
2018-09-13T16:31:25.445Z,95.20
2018-09-13T16:33:53.711Z,95.30
2018-09-13T16:36:25.219Z,95.40
2018-09-13T16:38:59.033Z,95.50
2018-09-13T16:41:38.497Z,95.50
2018-09-13T16:44:06.575Z,95.40
2018-09-13T16:46:41.222Z,95.40
2018-09-13T16:49:09.368Z,95.50
2018-09-13T16:51:37.692Z,95.70
2018-09-13T16:54:05.983Z,95.70
2018-09-13T16:56:34.109Z,95.90
2018-09-13T16:59:02.512Z,96.20
2018-09-13T17:01:30.680Z,95.90
2018-09-13T17:03:58.892Z,95.90
2018-09-13T17:06:27.086Z,96.00
2018-09-13T17:08:55.210Z,96.00
2018-09-13T17:11:23.343Z,96.00
2018-09-13T17:13:51.522Z,96.10
2018-09-13T17:16:19.625Z,96.10
2018-09-13T17:18:47.832Z,96.10
2018-09-13T17:21:15.925Z,96.20
2018-09-13T17:23:44.049Z,96.20
2018-09-13T17:26:12.581Z,96.10
2018-09-13T17:28:40.755Z,96.10
2018-09-13T17:31:09.383Z,96.10
2018-09-13T17:33:37.671Z,96.30
2018-09-13T17:36:05.804Z,96.70
2018-09-13T17:38:34.074Z,96.50
2018-09-13T17:41:02.372Z,96.60
2018-09-13T17:43:30.659Z,96.70
2018-09-13T17:45:58.916Z,96.70
2018-09-13T17:48:27.180Z,96.70
2018-09-13T17:50:55.364Z,96.70
2018-09-13T17:53:23.622Z,96.60
2018-09-13T17:55:52.535Z,96.60
2018-09-13T17:58:20.722Z,96.50
2018-09-13T18:00:48.946Z,96.50
2018-09-13T18:03:17.197Z,96.50
2018-09-13T18:05:45.472Z,96.70
2018-09-13T18:08:13.690Z,96.80
2018-09-13T18:10:41.820Z,96.80
2018-09-13T18:13:09.993Z,96.90
2018-09-13T18:15:38.273Z,96.80
2018-09-13T18:18:06.477Z,96.90
2018-09-13T18:20:34.654Z,96.80
2018-09-13T18:23:03.649Z,96.80
2018-09-13T18:25:31.835Z,96.90
2018-09-13T18:28:00.081Z,96.90
2018-09-13T18:30:28.333Z,97.00
2018-09-13T18:32:56.487Z,97.50
2018-09-13T18:35:24.758Z,97.20
2018-09-13T18:37:52.920Z,97.10
2018-09-13T18:40:21.293Z,97.20
2018-09-13T18:42:49.576Z,97.20
2018-09-13T18:45:22.645Z,97.20
2018-09-13T18:47:51.184Z,97.10
2018-09-13T18:50:19.327Z,97.00
2018-09-13T18:52:47.712Z,97.10
2018-09-13T18:55:16.984Z,97.20
2018-09-13T18:57:45.234Z,97.30
2018-09-13T19:00:13.504Z,97.70
2018-09-13T19:02:41.717Z,98.00
2018-09-13T19:05:09.872Z,98.20
2018-09-13T19:07:38.972Z,98.50
2018-09-13T19:10:07.960Z,98.70
2018-09-13T19:12:36.209Z,99.00
2018-09-13T19:15:04.706Z,99.20
2018-09-13T19:17:32.973Z,99.20
2018-09-13T19:20:01.199Z,99.30
2018-09-13T19:22:29.400Z,99.40
2018-09-13T19:24:58.510Z,99.40
2018-09-13T19:27:26.735Z,99.40
2018-09-13T19:29:55.997Z,99.40
2018-09-13T19:32:24.701Z,99.40
2018-09-13T19:34:53.764Z,99.40
2018-09-13T19:37:21.973Z,99.40
2018-09-13T19:39:50.238Z,99.40
2018-09-13T19:42:18.441Z,99.40
2018-09-13T19:44:46.747Z,99.50
2018-09-13T19:47:15.113Z,99.50
2018-09-13T19:49:43.257Z,99.60
2018-09-13T19:52:11.597Z,99.50
2018-09-13T19:54:39.769Z,99.60
2018-09-13T19:57:07.919Z,99.40
2018-09-13T19:59:37.169Z,99.30
2018-09-13T20:02:05.707Z,99.30
2018-09-13T20:04:34.003Z,99.30
2018-09-13T20:07:02.253Z,99.40
2018-09-13T20:09:30.554Z,99.40
2018-09-13T20:11:58.667Z,99.50
2018-09-13T20:14:27.705Z,99.50
2018-09-13T20:16:55.833Z,99.40
2018-09-13T20:19:24.033Z,99.40
2018-09-13T20:21:53.198Z,99.50
2018-09-13T20:24:21.462Z,99.60
2018-09-13T20:26:49.617Z,99.30
2018-09-13T20:29:17.889Z,99.30
2018-09-13T20:31:46.145Z,99.40
2018-09-13T20:34:14.481Z,99.30
2018-09-13T20:36:42.673Z,99.30
2018-09-13T20:39:11.342Z,99.30
2018-09-13T20:41:39.438Z,99.20
2018-09-13T20:44:08.002Z,99.00
2018-09-13T20:46:36.383Z,98.90
2018-09-13T20:49:04.751Z,98.80
2018-09-13T20:51:32.925Z,98.70
2018-09-13T20:54:01.254Z,98.80
2018-09-13T20:56:30.149Z,98.80
2018-09-13T20:58:58.410Z,98.80
2018-09-13T21:01:26.606Z,98.90
2018-09-13T21:03:54.800Z,99.20
2018-09-13T21:06:23.252Z,98.90
2018-09-13T21:08:51.414Z,98.70
2018-09-13T21:11:19.704Z,98.80
2018-09-13T21:13:48.237Z,98.90
2018-09-13T21:16:16.478Z,98.90
2018-09-13T21:18:44.770Z,98.90
2018-09-13T21:21:13.466Z,98.90
2018-09-13T21:23:41.782Z,98.80
2018-09-13T21:26:10.054Z,98.70
2018-09-13T21:28:38.286Z,98.50
2018-09-13T21:31:06.478Z,98.60
2018-09-13T21:33:34.762Z,98.60
2018-09-13T21:36:02.927Z,98.40
2018-09-13T21:38:31.128Z,98.50
2018-09-13T21:40:59.297Z,98.40
2018-09-13T21:43:27.659Z,98.40
2018-09-13T21:45:55.942Z,98.40
2018-09-13T21:48:24.256Z,98.40
2018-09-13T21:50:53.344Z,98.40
2018-09-13T21:53:21.513Z,98.50
2018-09-13T21:55:49.816Z,98.50
2018-09-13T21:58:17.986Z,98.50
2018-09-13T22:00:46.342Z,98.50
2018-09-13T22:03:14.608Z,98.50
2018-09-13T22:05:42.965Z,98.50
2018-09-13T22:08:11.308Z,98.40
2018-09-13T22:10:39.579Z,98.20
2018-09-13T22:13:07.681Z,98.20
2018-09-13T22:15:36.036Z,98.10
2018-09-13T22:18:04.245Z,98.20
2018-09-13T22:20:32.585Z,97.90
2018-09-13T22:23:00.716Z,97.80
2018-09-13T22:25:28.856Z,97.60
2018-09-13T22:27:57.129Z,97.30
2018-09-13T22:30:25.433Z,97.40
2018-09-13T22:32:53.579Z,97.10
2018-09-13T22:35:21.922Z,97.10
2018-09-13T22:37:50.120Z,97.10
2018-09-13T22:40:18.592Z,97.10
2018-09-13T22:42:47.330Z,97.00
2018-09-13T22:45:15.618Z,97.40
2018-09-13T22:47:43.833Z,97.10
2018-09-13T22:50:11.962Z,97.10
2018-09-13T22:52:41.181Z,97.10
2018-09-13T22:55:09.356Z,97.20
2018-09-13T22:57:37.600Z,97.20
2018-09-13T23:00:06.315Z,97.30
2018-09-13T23:02:40.252Z,97.30
2018-09-13T23:05:09.006Z,97.40
2018-09-13T23:07:37.930Z,97.50
2018-09-13T23:10:06.752Z,97.40
2018-09-13T23:12:35.026Z,97.50
2018-09-13T23:15:03.419Z,97.50
2018-09-13T23:17:31.865Z,97.40
2018-09-13T23:20:00.232Z,97.20
2018-09-13T23:22:28.434Z,97.20
2018-09-13T23:24:56.955Z,97.40
2018-09-13T23:27:25.375Z,97.00
2018-09-13T23:29:53.526Z,97.00
2018-09-13T23:32:21.896Z,96.80
2018-09-13T23:34:50.132Z,96.70
2018-09-13T23:37:18.468Z,96.60
2018-09-13T23:39:47.029Z,96.60
2018-09-13T23:42:16.011Z,96.60
2018-09-13T23:44:44.989Z,96.80
2018-09-13T23:47:13.359Z,96.40
2018-09-13T23:49:41.481Z,96.50
2018-09-13T23:52:09.785Z,96.50
2018-09-13T23:54:38.040Z,96.60
2018-09-13T23:57:07.068Z,96.60
2018-09-13T23:59:35.283Z,96.60
